Main page
METAR-TAF:

METAR-TAF

Airports :

RAF Ascension Island

Georgetown, Ascension Island

latitude: 07-58S, longitude: 014-24W, elevation: 86 m

Current weather observation

The report was made 32 minutes ago, at 03:50 UTC
Wind 16 kt from the Southeast
Temperature 24°C
Humidity 78%
Pressure 1014 hPa
Visibility 10 km or more
Scattered clouds at a height of 1500 ft
Broken clouds at a height of 3500 ft

METAR: FHAW 170350Z 13016KT 9999 SCT015 BKN035 24/20 Q1014 WHT NOSIG

Time: 04:22 (04:22 UTC)

Forecast

The report was made 2 hours and 52 minutes ago, at 01:30 UTC
Forecast valid from 17 at 03 UTC to 17 at 21 UTC
Wind 14 kt from the Southeast
Visibility 10 km or more
Few clouds at a height of 1800 ft
Broken clouds at a height of 3500 ft
Temporary
from 17 at 03 UTC to 17 at 21 UTC
Scattered clouds at a height of 1400 ft

TAF: FHAW 170130Z 1703/1721 13014KT 9999 FEW018 BKN035 TEMPO 1703/1721 SCT014

Weather observations and forecasts of more than 4000 airports (METAR and TAF reports).

The available stations are represented by yellow and red dots on the map.

Hover mouse over dot to see the name of the station.

Then click to see weather observations and forecasts.

To change the map : click on the green buttons with a black cross to zoom in, on the green button with a dash to zoom out, or on the green arrows for adjacent maps.


METAR-TAF: